createdAt,value
2017-09-24T00:01:04.430Z,22.30
2017-09-24T00:03:30.204Z,17.07
2017-09-24T00:05:55.963Z,20.83
2017-09-24T00:08:21.747Z,21.33
2017-09-24T00:10:47.519Z,19.70
2017-09-24T00:13:13.303Z,14.63
2017-09-24T00:15:39.299Z,15.23
2017-09-24T00:18:05.071Z,19.62
2017-09-24T00:20:30.822Z,19.33
2017-09-24T00:22:56.605Z,20.10
2017-09-24T00:25:22.367Z,19.47
2017-09-24T00:27:48.155Z,14.63
2017-09-24T00:30:13.967Z,23.07
2017-09-24T00:32:39.807Z,22.60
2017-09-24T00:35:05.583Z,20.53
2017-09-24T00:37:31.394Z,18.23
2017-09-24T00:39:57.143Z,24.33
2017-09-24T00:42:22.903Z,19.80
2017-09-24T00:44:48.760Z,23.93
2017-09-24T00:47:14.515Z,24.60
2017-09-24T00:49:40.301Z,20.77
2017-09-24T00:52:06.058Z,22.40
2017-09-24T00:54:31.819Z,22.50
2017-09-24T00:56:57.592Z,21.80
2017-09-24T00:59:23.396Z,27.13
2017-09-24T01:01:49.206Z,20.70
2017-09-24T01:04:14.991Z,19.50
2017-09-24T01:06:40.747Z,20.90
2017-09-24T01:09:06.498Z,21.30
2017-09-24T01:11:32.291Z,19.60
2017-09-24T01:13:58.079Z,18.10
2017-09-24T01:16:23.854Z,21.47
2017-09-24T01:18:49.667Z,17.37
2017-09-24T01:21:15.451Z,20.83
2017-09-24T01:23:41.216Z,29.83
2017-09-24T01:26:07.011Z,22.37
2017-09-24T01:28:32.777Z,24.43
2017-09-24T01:30:58.582Z,22.80
2017-09-24T01:33:24.362Z,23.77
2017-09-24T01:35:50.146Z,21.23
2017-09-24T01:38:15.943Z,21.43
2017-09-24T01:40:41.706Z,22.00
2017-09-24T01:43:07.503Z,16.97
2017-09-24T01:45:33.283Z,18.37
2017-09-24T01:47:59.051Z,16.30
2017-09-24T01:50:24.907Z,22.00
2017-09-24T01:52:50.675Z,20.83
2017-09-24T01:55:16.466Z,21.03
2017-09-24T01:57:42.274Z,21.27
2017-09-24T02:00:08.062Z,20.70
2017-09-24T02:02:33.825Z,20.90
2017-09-24T02:04:59.570Z,17.33
2017-09-24T02:07:25.346Z,25.03
2017-09-24T02:09:51.092Z,20.70
2017-09-24T02:12:16.858Z,24.43
2017-09-24T02:14:42.623Z,20.83
2017-09-24T02:17:08.399Z,20.80
2017-09-24T02:19:34.182Z,23.77
2017-09-24T02:21:59.927Z,20.43
2017-09-24T02:24:25.683Z,17.63
2017-09-24T02:26:51.450Z,18.17
2017-09-24T02:29:17.195Z,18.10
2017-09-24T02:31:43.655Z,19.67
2017-09-24T02:34:09.422Z,22.40
2017-09-24T02:36:35.211Z,20.40
2017-09-24T02:39:00.970Z,19.67
2017-09-24T02:41:26.812Z,24.93
2017-09-24T02:43:52.600Z,15.50
2017-09-24T02:46:18.351Z,22.03
2017-09-24T02:48:44.156Z,16.00
2017-09-24T02:51:09.917Z,20.13
2017-09-24T02:53:35.667Z,19.90
2017-09-24T02:56:01.542Z,24.97
2017-09-24T02:58:27.316Z,21.60
2017-09-24T03:00:53.123Z,18.70
2017-09-24T03:03:18.883Z,20.03
2017-09-24T03:05:44.659Z,23.40
2017-09-24T03:08:10.435Z,22.93
2017-09-24T03:10:36.186Z,24.50
2017-09-24T03:13:01.967Z,21.20
2017-09-24T03:15:27.724Z,19.27
2017-09-24T03:17:53.480Z,19.33
2017-09-24T03:20:19.254Z,25.63
2017-09-24T03:22:45.011Z,24.57
2017-09-24T03:25:10.837Z,22.33
2017-09-24T03:27:36.604Z,18.73
2017-09-24T03:30:02.413Z,16.47
2017-09-24T03:32:28.178Z,20.43
2017-09-24T03:34:53.922Z,19.90
2017-09-24T03:37:19.707Z,20.57
2017-09-24T03:39:45.458Z,20.20
2017-09-24T03:42:11.238Z,18.37
2017-09-24T03:44:36.993Z,16.73
2017-09-24T03:47:02.831Z,19.87
2017-09-24T03:49:28.590Z,19.00
2017-09-24T03:51:54.334Z,20.30
2017-09-24T03:54:20.127Z,17.27
2017-09-24T03:56:45.931Z,24.77
2017-09-24T03:59:11.689Z,23.77
2017-09-24T04:01:37.430Z,20.10
2017-09-24T04:04:03.214Z,21.07
2017-09-24T04:06:29.007Z,25.10
2017-09-24T04:08:54.786Z,29.40
2017-09-24T04:11:20.567Z,21.10
2017-09-24T04:16:19.503Z,23.25
2017-09-24T04:18:45.248Z,26.93
2017-09-24T04:21:11.070Z,26.33
2017-09-24T04:23:36.818Z,18.30
2017-09-24T04:26:02.566Z,21.60
2017-09-24T04:28:28.423Z,22.43
2017-09-24T04:30:54.170Z,20.53
2017-09-24T04:33:19.966Z,22.73
2017-09-24T04:35:45.815Z,21.03
2017-09-24T04:38:11.603Z,17.67
2017-09-24T04:40:37.419Z,22.53
2017-09-24T04:43:03.281Z,33.87
2017-09-24T04:45:29.070Z,17.80
2017-09-24T04:47:54.857Z,21.30
2017-09-24T04:50:20.627Z,20.17
2017-09-24T04:52:46.368Z,22.23
2017-09-24T04:55:12.179Z,17.07
2017-09-24T04:57:37.952Z,21.77
2017-09-24T05:00:03.727Z,22.43
2017-09-24T05:02:29.474Z,18.23
2017-09-24T05:04:55.258Z,23.17
2017-09-24T05:07:21.019Z,19.33
2017-09-24T05:09:46.771Z,23.27
2017-09-24T05:12:12.554Z,22.03
2017-09-24T05:14:38.340Z,18.60
2017-09-24T05:17:04.121Z,20.67
2017-09-24T05:19:29.866Z,24.03
2017-09-24T05:21:55.646Z,23.70
2017-09-24T05:24:21.406Z,17.63
2017-09-24T05:26:47.157Z,20.00
2017-09-24T05:29:12.948Z,18.53
2017-09-24T05:31:38.722Z,17.47
2017-09-24T05:34:04.474Z,20.23
2017-09-24T05:36:30.320Z,18.00
2017-09-24T05:38:56.070Z,15.27
2017-09-24T05:41:22.607Z,17.53
2017-09-24T05:43:48.508Z,20.33
2017-09-24T05:46:14.290Z,19.00
2017-09-24T05:48:40.070Z,18.20
2017-09-24T05:51:05.822Z,19.03
2017-09-24T05:53:31.615Z,18.90
2017-09-24T05:55:57.407Z,17.50
2017-09-24T05:58:23.158Z,18.53
2017-09-24T06:00:49.090Z,17.13
2017-09-24T06:03:14.861Z,15.70
2017-09-24T06:05:40.645Z,15.87
2017-09-24T06:08:06.386Z,20.37
2017-09-24T06:10:32.255Z,19.50
2017-09-24T06:12:58.078Z,15.13
2017-09-24T06:15:23.844Z,15.50
2017-09-24T06:17:49.610Z,22.07
2017-09-24T06:20:15.467Z,19.60
2017-09-24T06:22:41.219Z,18.13
2017-09-24T06:25:06.967Z,17.73
2017-09-24T06:27:32.832Z,20.40
2017-09-24T06:29:58.591Z,15.33
2017-09-24T06:32:24.374Z,17.17
2017-09-24T06:34:50.144Z,15.87
2017-09-24T06:37:15.922Z,17.77
2017-09-24T06:39:41.718Z,16.20
2017-09-24T06:42:07.474Z,20.83
2017-09-24T06:44:33.304Z,16.37
2017-09-24T06:46:59.127Z,18.97
2017-09-24T06:49:24.892Z,16.87
2017-09-24T06:51:50.781Z,19.40
2017-09-24T06:54:16.542Z,19.87
2017-09-24T06:56:42.419Z,16.70
2017-09-24T06:59:08.239Z,18.10
2017-09-24T07:01:34.146Z,19.00
2017-09-24T07:03:59.930Z,19.87
2017-09-24T07:06:25.718Z,20.53
2017-09-24T07:08:51.485Z,21.00
2017-09-24T07:11:17.266Z,15.50
2017-09-24T07:13:43.123Z,21.20
2017-09-24T07:16:08.970Z,20.43
2017-09-24T07:18:34.825Z,17.07
2017-09-24T07:21:00.560Z,20.83
2017-09-24T07:23:26.367Z,17.90
2017-09-24T07:25:52.142Z,23.93
2017-09-24T07:28:17.904Z,19.17
2017-09-24T07:30:43.754Z,16.53
2017-09-24T07:33:09.570Z,20.40
2017-09-24T07:35:35.332Z,18.83
2017-09-24T07:38:01.136Z,16.90
2017-09-24T07:40:26.971Z,17.77
2017-09-24T07:42:52.774Z,16.60
2017-09-24T07:45:18.633Z,18.83
2017-09-24T07:47:44.447Z,21.00
2017-09-24T07:50:10.243Z,23.60
2017-09-24T07:52:35.990Z,20.97
2017-09-24T07:55:01.740Z,23.30
2017-09-24T07:57:27.538Z,25.93
2017-09-24T07:59:53.286Z,36.03
2017-09-24T08:02:19.106Z,23.67
2017-09-24T08:04:44.890Z,29.10
2017-09-24T08:07:10.671Z,27.17
2017-09-24T08:09:36.418Z,23.37
2017-09-24T08:12:02.178Z,28.13
2017-09-24T08:14:27.949Z,26.03
2017-09-24T08:16:53.722Z,26.97
2017-09-24T08:19:19.512Z,33.73
2017-09-24T08:21:45.294Z,30.30
2017-09-24T08:24:11.044Z,33.00
2017-09-24T08:26:36.826Z,33.00
2017-09-24T08:29:02.619Z,37.00
2017-09-24T08:31:28.455Z,39.23
2017-09-24T08:33:54.194Z,36.50
2017-09-24T08:36:19.983Z,42.10
2017-09-24T08:38:45.847Z,38.77
2017-09-24T08:41:11.658Z,34.13
2017-09-24T08:43:37.458Z,37.93
2017-09-24T08:46:03.236Z,42.40
2017-09-24T08:48:29.031Z,33.47
2017-09-24T08:50:54.836Z,33.60
2017-09-24T08:53:20.636Z,35.43
2017-09-24T08:55:46.433Z,33.37
2017-09-24T08:58:12.183Z,35.13
2017-09-24T09:00:38.033Z,32.23
2017-09-24T09:03:03.895Z,29.80
2017-09-24T09:05:29.654Z,33.10
2017-09-24T09:07:55.719Z,29.97
2017-09-24T09:10:21.509Z,33.57
2017-09-24T09:12:47.271Z,26.37
2017-09-24T09:15:13.043Z,31.17
2017-09-24T09:17:38.807Z,24.90
2017-09-24T09:20:04.595Z,28.87
2017-09-24T09:22:30.407Z,21.50
2017-09-24T09:24:56.153Z,21.60
2017-09-24T09:27:21.953Z,20.50
2017-09-24T09:29:47.731Z,19.30
2017-09-24T09:32:13.513Z,28.53
2017-09-24T09:37:31.073Z,22.83
2017-09-24T09:39:56.819Z,21.63
2017-09-24T09:42:22.584Z,25.67
2017-09-24T09:44:50.196Z,24.00
2017-09-24T09:47:25.226Z,19.63
2017-09-24T09:49:51.027Z,18.20
2017-09-24T09:52:16.774Z,20.10
2017-09-24T09:54:42.523Z,19.30
2017-09-24T09:57:08.523Z,19.43
2017-09-24T09:59:34.283Z,19.27
2017-09-24T10:02:00.114Z,14.30
2017-09-24T10:04:25.892Z,22.60
2017-09-24T10:10:05.090Z,20.57
2017-09-24T10:12:30.891Z,18.20
2017-09-24T10:14:56.660Z,15.77
2017-09-24T10:17:22.474Z,16.90
2017-09-24T10:19:48.254Z,20.00
2017-09-24T10:22:14.011Z,21.20
2017-09-24T10:24:39.812Z,19.83
2017-09-24T10:27:05.570Z,24.17
2017-09-24T10:29:31.384Z,18.90
2017-09-24T10:32:01.174Z,22.77
2017-09-24T10:34:26.996Z,20.00
2017-09-24T10:36:52.899Z,24.13
2017-09-24T10:39:18.655Z,21.67
2017-09-24T10:41:44.411Z,23.60
2017-09-24T10:44:10.221Z,16.57
2017-09-24T10:46:36.008Z,19.23
2017-09-24T10:49:01.808Z,25.27
2017-09-24T10:51:27.562Z,19.77
2017-09-24T10:53:53.379Z,24.50
2017-09-24T10:56:19.372Z,17.67
2017-09-24T10:58:45.160Z,23.00
2017-09-24T11:01:11.010Z,17.63
2017-09-24T11:03:36.835Z,19.40
2017-09-24T11:06:02.597Z,22.57
2017-09-24T11:08:28.518Z,23.00
2017-09-24T11:10:54.384Z,21.33
2017-09-24T11:13:20.133Z,23.90
2017-09-24T11:15:46.397Z,20.43
2017-09-24T11:18:13.307Z,19.10
2017-09-24T11:20:39.056Z,19.00
2017-09-24T11:23:04.835Z,25.10
2017-09-24T11:25:30.622Z,18.73
2017-09-24T11:27:57.260Z,16.67
2017-09-24T11:30:23.023Z,20.33
2017-09-24T11:32:48.811Z,28.00
2017-09-24T11:35:14.606Z,25.93
2017-09-24T11:37:40.355Z,19.00
2017-09-24T11:40:06.115Z,21.50
2017-09-24T11:42:31.991Z,24.53
2017-09-24T11:44:57.765Z,23.27
2017-09-24T11:47:23.527Z,25.03
2017-09-24T11:49:49.343Z,21.50
2017-09-24T11:52:15.148Z,23.47
2017-09-24T11:54:40.902Z,24.70
2017-09-24T11:57:06.683Z,24.47
2017-09-24T11:59:32.475Z,22.50
2017-09-24T12:01:58.335Z,22.30
2017-09-24T12:04:24.136Z,18.43
2017-09-24T12:06:49.987Z,15.97
2017-09-24T12:09:15.761Z,16.87
2017-09-24T12:11:41.559Z,22.10
2017-09-24T12:14:07.304Z,22.70
2017-09-24T12:16:33.147Z,17.67
2017-09-24T12:18:58.899Z,16.67
2017-09-24T12:21:24.736Z,16.27
2017-09-24T12:23:50.617Z,13.90
2017-09-24T12:26:16.368Z,12.90
2017-09-24T12:28:42.202Z,17.30
2017-09-24T12:31:08.074Z,15.50
2017-09-24T12:33:33.843Z,17.60
2017-09-24T12:35:59.630Z,23.37
2017-09-24T12:38:25.378Z,14.57
2017-09-24T12:40:51.231Z,91.30
2017-09-24T12:43:17.106Z,45.37
2017-09-24T12:45:42.878Z,18.20
2017-09-24T12:48:08.759Z,12.90
2017-09-24T12:50:34.555Z,15.97
2017-09-24T12:53:00.366Z,15.40
2017-09-24T12:55:26.130Z,12.53
2017-09-24T12:57:51.898Z,13.07
2017-09-24T13:00:17.711Z,14.40
2017-09-24T13:02:43.474Z,13.30
2017-09-24T13:05:09.264Z,10.83
2017-09-24T13:07:35.064Z,16.90
2017-09-24T13:10:00.871Z,12.90
2017-09-24T13:12:26.624Z,14.93
2017-09-24T13:14:52.375Z,19.80
2017-09-24T13:17:18.162Z,13.50
2017-09-24T13:19:43.922Z,10.20
2017-09-24T13:22:09.698Z,14.33
2017-09-24T13:24:35.470Z,9.93
2017-09-24T13:27:01.251Z,15.90
2017-09-24T13:29:27.022Z,14.10
2017-09-24T13:31:52.786Z,12.37
2017-09-24T13:34:18.558Z,16.10
2017-09-24T13:36:44.343Z,19.83
2017-09-24T13:39:10.130Z,14.93
2017-09-24T13:41:35.907Z,11.50
2017-09-24T13:44:01.808Z,13.13
2017-09-24T13:46:27.573Z,13.87
2017-09-24T13:48:53.359Z,11.33
2017-09-24T13:51:19.179Z,10.20
2017-09-24T13:53:44.972Z,10.57
2017-09-24T13:56:10.831Z,14.57
2017-09-24T13:58:36.622Z,11.20
2017-09-24T14:01:02.403Z,13.33
2017-09-24T14:03:28.203Z,16.83
2017-09-24T14:05:53.959Z,15.27
2017-09-24T14:08:19.759Z,13.97
2017-09-24T14:10:45.520Z,16.20
2017-09-24T14:13:11.283Z,12.57
2017-09-24T14:15:37.066Z,12.50
2017-09-24T14:18:03.372Z,11.33
2017-09-24T14:20:29.178Z,10.33
2017-09-24T14:22:55.013Z,11.80
2017-09-24T14:25:20.766Z,12.07
2017-09-24T14:27:46.665Z,11.67
2017-09-24T14:30:12.423Z,10.60
2017-09-24T14:32:38.198Z,10.70
2017-09-24T14:35:03.980Z,13.13
2017-09-24T14:37:29.735Z,17.17
2017-09-24T14:39:55.527Z,11.40
2017-09-24T14:42:21.282Z,13.23
2017-09-24T14:44:47.042Z,14.70
2017-09-24T14:47:12.955Z,11.40
2017-09-24T14:49:38.726Z,14.17
2017-09-24T14:52:04.523Z,12.53
2017-09-24T14:54:30.411Z,10.83
2017-09-24T14:56:56.198Z,11.00
2017-09-24T14:59:21.976Z,13.77
2017-09-24T15:01:47.764Z,14.70
2017-09-24T15:04:13.547Z,14.90
2017-09-24T15:06:39.449Z,10.57
2017-09-24T15:09:05.254Z,9.87
2017-09-24T15:11:31.020Z,9.57
2017-09-24T15:13:56.802Z,13.00
2017-09-24T15:16:22.588Z,9.30
2017-09-24T15:18:48.487Z,11.33
2017-09-24T15:21:14.246Z,11.33
2017-09-24T15:23:40.038Z,13.00
2017-09-24T15:26:05.927Z,9.43
2017-09-24T15:28:31.727Z,10.63
2017-09-24T15:30:57.494Z,15.13
2017-09-24T15:33:23.282Z,13.60
2017-09-24T15:35:49.051Z,11.40
2017-09-24T15:38:14.839Z,10.67
2017-09-24T15:40:40.690Z,10.07
2017-09-24T15:43:06.446Z,13.23
2017-09-24T15:45:32.265Z,14.27
2017-09-24T15:47:58.018Z,11.60
2017-09-24T15:50:23.875Z,11.87
2017-09-24T15:52:49.671Z,11.50
2017-09-24T15:55:15.422Z,11.80
2017-09-24T15:57:41.208Z,13.20
2017-09-24T16:00:06.990Z,13.77
2017-09-24T16:02:32.751Z,16.37
2017-09-24T16:04:58.552Z,12.70
2017-09-24T16:07:24.426Z,14.90
2017-09-24T16:09:50.190Z,12.80
2017-09-24T16:12:15.996Z,14.43
2017-09-24T16:14:41.762Z,14.63
2017-09-24T16:17:07.571Z,13.00
2017-09-24T16:19:33.391Z,13.40
2017-09-24T16:21:59.172Z,14.27
2017-09-24T16:24:24.914Z,16.10
2017-09-24T16:26:50.699Z,18.90
2017-09-24T16:29:16.504Z,16.07
2017-09-24T16:31:43.295Z,15.60
2017-09-24T16:34:09.170Z,15.03
2017-09-24T16:36:34.956Z,14.80
2017-09-24T16:39:00.791Z,14.97
2017-09-24T16:41:26.552Z,18.60
2017-09-24T16:43:52.363Z,14.23
2017-09-24T16:46:18.127Z,12.77
2017-09-24T16:48:43.882Z,15.37
2017-09-24T16:51:09.703Z,13.07
2017-09-24T16:53:35.539Z,13.13
2017-09-24T16:56:01.347Z,13.30
2017-09-24T16:58:27.200Z,14.43
2017-09-24T17:00:52.950Z,20.33
2017-09-24T17:03:18.707Z,17.20
2017-09-24T17:05:44.609Z,11.57
2017-09-24T17:08:10.347Z,12.13
2017-09-24T17:10:36.223Z,15.10
2017-09-24T17:13:02.007Z,13.93
2017-09-24T17:15:27.808Z,17.97
2017-09-24T17:17:53.673Z,21.13
2017-09-24T17:20:19.435Z,17.13
2017-09-24T17:22:45.246Z,15.00
2017-09-24T17:25:11.011Z,15.10
2017-09-24T17:27:36.806Z,16.30
2017-09-24T17:30:02.567Z,15.97
2017-09-24T17:32:28.370Z,11.10
2017-09-24T17:34:54.106Z,17.83
2017-09-24T17:37:19.928Z,14.83
2017-09-24T17:39:45.682Z,20.03
2017-09-24T17:42:11.455Z,16.50
2017-09-24T17:44:37.243Z,37.17
2017-09-24T17:47:03.006Z,30.47
2017-09-24T17:49:28.787Z,16.80
2017-09-24T17:51:54.586Z,16.30
2017-09-24T17:54:20.375Z,16.20
2017-09-24T17:56:46.199Z,21.10
2017-09-24T17:59:11.991Z,14.43
2017-09-24T18:01:37.780Z,16.10
2017-09-24T18:04:03.577Z,15.53
2017-09-24T18:06:29.334Z,17.00
2017-09-24T18:08:55.095Z,14.70
2017-09-24T18:11:20.919Z,17.57
2017-09-24T18:13:46.757Z,15.93
2017-09-24T18:16:12.611Z,15.83
2017-09-24T18:18:38.379Z,15.93
2017-09-24T18:21:04.203Z,27.40
2017-09-24T18:23:29.983Z,17.90
2017-09-24T18:25:55.839Z,17.03
2017-09-24T18:28:21.691Z,18.13
2017-09-24T18:30:47.494Z,14.73
2017-09-24T18:33:13.277Z,14.70
2017-09-24T18:35:39.022Z,23.40
2017-09-24T18:38:04.820Z,17.80
2017-09-24T18:40:30.608Z,18.70
2017-09-24T18:42:56.493Z,19.13
2017-09-24T18:45:22.383Z,20.03
2017-09-24T18:47:48.143Z,17.90
2017-09-24T18:50:13.912Z,17.83
2017-09-24T18:52:39.768Z,23.40
2017-09-24T18:55:05.531Z,19.00
2017-09-24T18:57:31.403Z,19.20
2017-09-24T18:59:57.155Z,17.23
2017-09-24T19:02:22.922Z,21.60
2017-09-24T19:04:48.703Z,18.30
2017-09-24T19:07:14.603Z,17.47
2017-09-24T19:09:40.410Z,16.00
2017-09-24T19:12:06.210Z,17.80
2017-09-24T19:14:31.963Z,19.10
2017-09-24T19:16:57.746Z,17.03
2017-09-24T19:19:23.526Z,15.13
2017-09-24T19:21:49.338Z,21.37
2017-09-24T19:24:15.142Z,18.13
2017-09-24T19:26:41.003Z,17.00
2017-09-24T19:29:06.794Z,17.60
2017-09-24T19:31:32.558Z,27.33
2017-09-24T19:33:58.327Z,26.47
2017-09-24T19:36:24.103Z,15.03
2017-09-24T19:38:49.875Z,17.23
2017-09-24T19:41:15.694Z,15.90
2017-09-24T19:43:41.455Z,16.83
2017-09-24T19:46:07.254Z,21.80
2017-09-24T19:48:33.014Z,21.53
2017-09-24T19:50:58.776Z,21.80
2017-09-24T19:53:24.667Z,18.70
2017-09-24T19:55:50.470Z,19.70
2017-09-24T19:58:16.291Z,18.40
2017-09-24T20:00:42.103Z,23.73
2017-09-24T20:03:07.955Z,60.50
2017-09-24T20:05:33.727Z,30.67
2017-09-24T20:07:59.598Z,19.70
2017-09-24T20:10:25.440Z,19.30
2017-09-24T20:12:51.223Z,20.50
2017-09-24T20:15:16.974Z,21.33
2017-09-24T20:17:42.770Z,23.50
2017-09-24T20:20:08.565Z,28.63
2017-09-24T20:22:34.323Z,24.57
2017-09-24T20:25:00.162Z,22.00
2017-09-24T20:27:25.956Z,20.40
2017-09-24T20:29:51.722Z,21.80
2017-09-24T20:32:17.575Z,23.13
2017-09-24T20:34:43.358Z,18.40
2017-09-24T20:37:09.138Z,18.97
2017-09-24T20:39:35.010Z,20.77
2017-09-24T20:42:00.864Z,18.80
2017-09-24T20:44:26.645Z,23.47
2017-09-24T20:46:52.475Z,19.17
2017-09-24T20:49:18.347Z,21.80
2017-09-24T20:51:44.111Z,25.60
2017-09-24T20:54:09.899Z,22.40
2017-09-24T20:56:35.675Z,19.10
2017-09-24T20:59:01.451Z,20.67
2017-09-24T21:01:27.202Z,23.60
2017-09-24T21:03:52.983Z,23.30
2017-09-24T21:06:18.727Z,25.80
2017-09-24T21:08:44.486Z,20.90
2017-09-24T21:11:10.351Z,21.60
2017-09-24T21:13:36.183Z,24.23
2017-09-24T21:16:01.931Z,21.43
2017-09-24T21:18:27.727Z,19.57
2017-09-24T21:20:53.487Z,21.60
2017-09-24T21:23:19.282Z,18.60
2017-09-24T21:25:45.036Z,25.30
2017-09-24T21:28:10.791Z,20.90
2017-09-24T21:30:36.634Z,21.33
2017-09-24T21:33:02.410Z,24.83
2017-09-24T21:35:28.303Z,21.90
2017-09-24T21:37:54.054Z,25.77
2017-09-24T21:40:19.807Z,28.77
2017-09-24T21:42:45.675Z,23.40
2017-09-24T21:45:11.439Z,21.70
2017-09-24T21:47:37.226Z,27.97
2017-09-24T21:50:02.984Z,25.30
2017-09-24T21:52:28.726Z,21.87
2017-09-24T21:54:54.532Z,24.67
2017-09-24T21:57:20.382Z,25.60
2017-09-24T21:59:46.163Z,21.10
2017-09-24T22:02:11.906Z,23.37
2017-09-24T22:04:37.704Z,30.47
2017-09-24T22:07:03.452Z,21.97
2017-09-24T22:09:29.223Z,27.13
2017-09-24T22:11:55.067Z,25.40
2017-09-24T22:14:20.846Z,25.37
2017-09-24T22:16:46.639Z,26.50
2017-09-24T22:19:12.541Z,25.13
2017-09-24T22:21:38.309Z,29.10
2017-09-24T22:24:04.058Z,36.53
2017-09-24T22:26:29.844Z,24.50
2017-09-24T22:28:55.598Z,24.13
2017-09-24T22:31:21.346Z,23.27
2017-09-24T22:33:47.155Z,25.47
2017-09-24T22:36:12.967Z,30.30
2017-09-24T22:38:38.719Z,31.03
2017-09-24T22:41:04.493Z,25.47
2017-09-24T22:43:30.230Z,23.30
2017-09-24T22:45:56.025Z,24.47
2017-09-24T22:48:21.790Z,24.93
2017-09-24T22:50:47.588Z,26.17
2017-09-24T22:53:13.379Z,29.03
2017-09-24T22:55:39.163Z,20.80
2017-09-24T22:58:05.771Z,20.90
2017-09-24T23:00:31.531Z,24.95
2017-09-24T23:02:57.319Z,26.10
2017-09-24T23:05:23.067Z,26.00
2017-09-24T23:07:48.826Z,31.30
2017-09-24T23:10:14.603Z,26.27
2017-09-24T23:12:40.454Z,28.20
2017-09-24T23:15:06.231Z,27.87
2017-09-24T23:17:31.978Z,26.37
2017-09-24T23:19:57.778Z,24.80
2017-09-24T23:22:23.567Z,29.90
2017-09-24T23:24:49.315Z,26.47
2017-09-24T23:27:15.140Z,26.87
2017-09-24T23:29:40.914Z,25.33
2017-09-24T23:32:06.674Z,27.33
2017-09-24T23:34:32.463Z,25.03
2017-09-24T23:36:58.295Z,32.57
2017-09-24T23:39:24.041Z,26.83
2017-09-24T23:41:49.838Z,23.43
2017-09-24T23:44:15.591Z,24.30
2017-09-24T23:46:41.346Z,24.20
2017-09-24T23:49:07.126Z,25.30
2017-09-24T23:51:32.915Z,28.47
2017-09-24T23:53:58.775Z,24.80
2017-09-24T23:56:24.552Z,35.00
2017-09-24T23:58:50.315Z,28.63
